sensor_id;sensor_type;location;lat;lon;timestamp;temperature;humidity
78767;SHT31;68092;51.982;5.680;2023-03-14T00:00:27;14.8;62.7
78767;SHT31;68092;51.982;5.680;2023-03-14T00:02:56;14.8;63.8
78767;SHT31;68092;51.982;5.680;2023-03-14T00:05:26;14.8;63.1
78767;SHT31;68092;51.982;5.680;2023-03-14T00:07:58;14.7;64.2
78767;SHT31;68092;51.982;5.680;2023-03-14T00:10:29;14.7;64.1
78767;SHT31;68092;51.982;5.680;2023-03-14T00:13:00;14.7;65.1
78767;SHT31;68092;51.982;5.680;2023-03-14T00:15:31;14.6;65.0
78767;SHT31;68092;51.982;5.680;2023-03-14T00:18:01;14.6;65.6
78767;SHT31;68092;51.982;5.680;2023-03-14T00:20:31;14.5;65.5
78767;SHT31;68092;51.982;5.680;2023-03-14T00:23:00;14.5;64.7
78767;SHT31;68092;51.982;5.680;2023-03-14T00:25:30;14.5;64.9
78767;SHT31;68092;51.982;5.680;2023-03-14T00:27:59;14.4;64.3
78767;SHT31;68092;51.982;5.680;2023-03-14T00:30:29;14.4;64.5
78767;SHT31;68092;51.982;5.680;2023-03-14T00:32:58;14.4;64.6
78767;SHT31;68092;51.982;5.680;2023-03-14T00:35:28;14.4;64.7
78767;SHT31;68092;51.982;5.680;2023-03-14T00:37:57;14.3;64.8
78767;SHT31;68092;51.982;5.680;2023-03-14T00:40:28;14.3;64.6
78767;SHT31;68092;51.982;5.680;2023-03-14T00:42:58;14.3;64.4
78767;SHT31;68092;51.982;5.680;2023-03-14T00:45:27;14.3;64.0
78767;SHT31;68092;51.982;5.680;2023-03-14T00:47:56;14.3;63.8
78767;SHT31;68092;51.982;5.680;2023-03-14T00:50:26;14.3;63.4
78767;SHT31;68092;51.982;5.680;2023-03-14T00:52:55;14.2;61.7
78767;SHT31;68092;51.982;5.680;2023-03-14T00:55:26;14.2;61.0
78767;SHT31;68092;51.982;5.680;2023-03-14T00:57:56;14.1;60.8
78767;SHT31;68092;51.982;5.680;2023-03-14T01:00:26;14.1;60.6
78767;SHT31;68092;51.982;5.680;2023-03-14T01:02:55;14.1;59.6
78767;SHT31;68092;51.982;5.680;2023-03-14T01:05:25;14.0;58.6
78767;SHT31;68092;51.982;5.680;2023-03-14T01:07:55;14.0;57.9
78767;SHT31;68092;51.982;5.680;2023-03-14T01:10:27;13.9;59.0
78767;SHT31;68092;51.982;5.680;2023-03-14T01:12:57;13.9;59.6
78767;SHT31;68092;51.982;5.680;2023-03-14T01:15:27;13.9;59.1
78767;SHT31;68092;51.982;5.680;2023-03-14T01:17:56;13.8;59.9
78767;SHT31;68092;51.982;5.680;2023-03-14T01:20:26;13.8;59.7
78767;SHT31;68092;51.982;5.680;2023-03-14T01:22:56;13.8;59.5
78767;SHT31;68092;51.982;5.680;2023-03-14T01:25:25;13.8;60.3
78767;SHT31;68092;51.982;5.680;2023-03-14T01:27:55;13.8;61.4
78767;SHT31;68092;51.982;5.680;2023-03-14T01:30:25;13.8;61.9
78767;SHT31;68092;51.982;5.680;2023-03-14T01:32:54;13.7;62.5
78767;SHT31;68092;51.982;5.680;2023-03-14T01:35:24;13.7;62.0
78767;SHT31;68092;51.982;5.680;2023-03-14T01:37:53;13.6;62.4
78767;SHT31;68092;51.982;5.680;2023-03-14T01:40:25;13.6;62.8
78767;SHT31;68092;51.982;5.680;2023-03-14T01:43:14;13.6;63.2
78767;SHT31;68092;51.982;5.680;2023-03-14T01:49:19;13.5;62.8
78767;SHT31;68092;51.982;5.680;2023-03-14T01:51:56;13.5;61.7
78767;SHT31;68092;51.982;5.680;2023-03-14T01:54:32;13.5;62.4
78767;SHT31;68092;51.982;5.680;2023-03-14T01:57:08;13.4;63.7
78767;SHT31;68092;51.982;5.680;2023-03-14T01:59:44;13.4;64.6
78767;SHT31;68092;51.982;5.680;2023-03-14T02:02:17;13.3;65.2
78767;SHT31;68092;51.982;5.680;2023-03-14T02:04:49;13.2;65.6
78767;SHT31;68092;51.982;5.680;2023-03-14T02:07:25;13.2;66.2
78767;SHT31;68092;51.982;5.680;2023-03-14T02:09:58;13.1;66.7
78767;SHT31;68092;51.982;5.680;2023-03-14T02:12:31;13.1;67.0
78767;SHT31;68092;51.982;5.680;2023-03-14T02:15:01;13.0;67.2
78767;SHT31;68092;51.982;5.680;2023-03-14T02:17:31;13.0;67.4
78767;SHT31;68092;51.982;5.680;2023-03-14T02:20:10;13.0;67.7
78767;SHT31;68092;51.982;5.680;2023-03-14T02:22:45;12.9;68.0
78767;SHT31;68092;51.982;5.680;2023-03-14T02:25:24;12.9;68.2
78767;SHT31;68092;51.982;5.680;2023-03-14T02:27:56;12.9;68.6
78767;SHT31;68092;51.982;5.680;2023-03-14T02:30:29;12.8;68.7
78767;SHT31;68092;51.982;5.680;2023-03-14T02:33:02;12.8;69.0
78767;SHT31;68092;51.982;5.680;2023-03-14T02:35:36;12.7;69.4
78767;SHT31;68092;51.982;5.680;2023-03-14T02:38:15;12.7;69.4
78767;SHT31;68092;51.982;5.680;2023-03-14T02:40:47;12.7;69.2
78767;SHT31;68092;51.982;5.680;2023-03-14T02:43:18;12.7;69.2
78767;SHT31;68092;51.982;5.680;2023-03-14T02:45:49;12.7;69.2
78767;SHT31;68092;51.982;5.680;2023-03-14T02:48:22;12.6;69.2
78767;SHT31;68092;51.982;5.680;2023-03-14T02:50:56;12.6;69.1
78767;SHT31;68092;51.982;5.680;2023-03-14T02:53:29;12.7;69.0
78767;SHT31;68092;51.982;5.680;2023-03-14T02:56:00;12.7;68.8
78767;SHT31;68092;51.982;5.680;2023-03-14T02:58:31;12.7;68.6
78767;SHT31;68092;51.982;5.680;2023-03-14T03:01:01;12.7;68.6
78767;SHT31;68092;51.982;5.680;2023-03-14T03:03:34;12.7;68.3
78767;SHT31;68092;51.982;5.680;2023-03-14T03:06:04;12.7;67.9
78767;SHT31;68092;51.982;5.680;2023-03-14T03:08:34;12.7;67.9
78767;SHT31;68092;51.982;5.680;2023-03-14T03:11:04;12.7;67.9
78767;SHT31;68092;51.982;5.680;2023-03-14T03:13:34;12.7;67.8
78767;SHT31;68092;51.982;5.680;2023-03-14T03:16:04;12.7;67.8
78767;SHT31;68092;51.982;5.680;2023-03-14T03:18:36;12.7;67.8
78767;SHT31;68092;51.982;5.680;2023-03-14T03:21:07;12.7;67.7
78767;SHT31;68092;51.982;5.680;2023-03-14T03:23:38;12.7;67.3
78767;SHT31;68092;51.982;5.680;2023-03-14T03:26:09;12.7;67.3
78767;SHT31;68092;51.982;5.680;2023-03-14T03:28:38;12.7;67.3
78767;SHT31;68092;51.982;5.680;2023-03-14T03:31:11;12.7;67.6
78767;SHT31;68092;51.982;5.680;2023-03-14T03:33:40;12.7;67.1
78767;SHT31;68092;51.982;5.680;2023-03-14T03:36:12;12.7;66.7
78767;SHT31;68092;51.982;5.680;2023-03-14T03:38:43;12.7;67.3
78767;SHT31;68092;51.982;5.680;2023-03-14T03:41:12;12.7;67.0
78767;SHT31;68092;51.982;5.680;2023-03-14T03:43:42;12.7;66.9
78767;SHT31;68092;51.982;5.680;2023-03-14T03:46:11;12.7;66.4
78767;SHT31;68092;51.982;5.680;2023-03-14T03:48:41;12.7;66.8
78767;SHT31;68092;51.982;5.680;2023-03-14T03:51:14;12.7;66.5
78767;SHT31;68092;51.982;5.680;2023-03-14T03:53:44;12.7;66.8
78767;SHT31;68092;51.982;5.680;2023-03-14T03:56:14;12.7;66.9
78767;SHT31;68092;51.982;5.680;2023-03-14T03:58:43;12.7;66.6
78767;SHT31;68092;51.982;5.680;2023-03-14T04:01:16;12.7;66.5
78767;SHT31;68092;51.982;5.680;2023-03-14T04:03:45;12.7;66.3
78767;SHT31;68092;51.982;5.680;2023-03-14T04:06:15;12.7;66.2
78767;SHT31;68092;51.982;5.680;2023-03-14T04:08:45;12.7;65.9
78767;SHT31;68092;51.982;5.680;2023-03-14T04:11:14;12.7;65.8
78767;SHT31;68092;51.982;5.680;2023-03-14T04:13:44;12.7;65.7
78767;SHT31;68092;51.982;5.680;2023-03-14T04:16:17;12.7;65.7
78767;SHT31;68092;51.982;5.680;2023-03-14T04:18:49;12.7;65.7
78767;SHT31;68092;51.982;5.680;2023-03-14T04:21:19;12.7;65.4
78767;SHT31;68092;51.982;5.680;2023-03-14T04:23:48;12.7;65.5
78767;SHT31;68092;51.982;5.680;2023-03-14T04:26:18;12.7;65.7
78767;SHT31;68092;51.982;5.680;2023-03-14T04:28:48;12.7;65.5
78767;SHT31;68092;51.982;5.680;2023-03-14T04:31:19;12.6;65.7
78767;SHT31;68092;51.982;5.680;2023-03-14T04:33:49;12.6;65.6
78767;SHT31;68092;51.982;5.680;2023-03-14T04:36:18;12.6;65.8
78767;SHT31;68092;51.982;5.680;2023-03-14T04:38:48;12.6;66.0
78767;SHT31;68092;51.982;5.680;2023-03-14T04:41:17;12.6;66.1
78767;SHT31;68092;51.982;5.680;2023-03-14T04:43:47;12.6;65.8
78767;SHT31;68092;51.982;5.680;2023-03-14T04:46:16;12.6;65.7
78767;SHT31;68092;51.982;5.680;2023-03-14T04:48:48;12.6;65.8
78767;SHT31;68092;51.982;5.680;2023-03-14T04:51:17;12.6;65.7
78767;SHT31;68092;51.982;5.680;2023-03-14T04:53:47;12.6;65.6
78767;SHT31;68092;51.982;5.680;2023-03-14T04:56:16;12.6;65.9
78767;SHT31;68092;51.982;5.680;2023-03-14T04:58:46;12.6;66.1
78767;SHT31;68092;51.982;5.680;2023-03-14T05:01:18;12.6;65.4
78767;SHT31;68092;51.982;5.680;2023-03-14T05:03:48;12.6;65.6
78767;SHT31;68092;51.982;5.680;2023-03-14T05:06:18;12.6;65.5
78767;SHT31;68092;51.982;5.680;2023-03-14T05:08:47;12.6;65.6
78767;SHT31;68092;51.982;5.680;2023-03-14T05:11:17;12.6;65.8
78767;SHT31;68092;51.982;5.680;2023-03-14T05:13:46;12.6;66.4
78767;SHT31;68092;51.982;5.680;2023-03-14T05:16:16;12.6;66.2
78767;SHT31;68092;51.982;5.680;2023-03-14T05:18:45;12.6;66.6
78767;SHT31;68092;51.982;5.680;2023-03-14T05:21:15;12.6;66.6
78767;SHT31;68092;51.982;5.680;2023-03-14T05:23:44;12.6;66.3
78767;SHT31;68092;51.982;5.680;2023-03-14T05:26:14;12.6;66.7
78767;SHT31;68092;51.982;5.680;2023-03-14T05:28:45;12.6;66.5
78767;SHT31;68092;51.982;5.680;2023-03-14T05:31:16;12.7;66.5
78767;SHT31;68092;51.982;5.680;2023-03-14T05:33:47;12.7;66.2
78767;SHT31;68092;51.982;5.680;2023-03-14T05:36:16;12.7;66.5
78767;SHT31;68092;51.982;5.680;2023-03-14T05:38:46;12.7;66.9
78767;SHT31;68092;51.982;5.680;2023-03-14T05:41:15;12.7;66.9
78767;SHT31;68092;51.982;5.680;2023-03-14T05:43:45;12.7;67.0
78767;SHT31;68092;51.982;5.680;2023-03-14T05:46:14;12.7;67.1
78767;SHT31;68092;51.982;5.680;2023-03-14T05:48:44;12.7;67.4
78767;SHT31;68092;51.982;5.680;2023-03-14T05:51:13;12.7;67.6
78767;SHT31;68092;51.982;5.680;2023-03-14T05:53:43;12.7;67.7
78767;SHT31;68092;51.982;5.680;2023-03-14T05:56:13;12.7;67.8
78767;SHT31;68092;51.982;5.680;2023-03-14T05:58:42;12.7;68.1
78767;SHT31;68092;51.982;5.680;2023-03-14T06:01:14;12.7;68.3
78767;SHT31;68092;51.982;5.680;2023-03-14T06:03:43;12.7;68.3
78767;SHT31;68092;51.982;5.680;2023-03-14T06:06:12;12.7;68.3
78767;SHT31;68092;51.982;5.680;2023-03-14T06:08:44;12.7;68.6
78767;SHT31;68092;51.982;5.680;2023-03-14T06:11:13;12.7;68.4
78767;SHT31;68092;51.982;5.680;2023-03-14T06:13:44;12.6;68.7
78767;SHT31;68092;51.982;5.680;2023-03-14T06:16:14;12.6;68.8
78767;SHT31;68092;51.982;5.680;2023-03-14T06:18:47;12.6;68.9
78767;SHT31;68092;51.982;5.680;2023-03-14T06:21:20;12.6;69.1
78767;SHT31;68092;51.982;5.680;2023-03-14T06:23:49;12.6;69.5
78767;SHT31;68092;51.982;5.680;2023-03-14T06:26:19;12.6;69.9
78767;SHT31;68092;51.982;5.680;2023-03-14T06:28:51;12.6;69.8
78767;SHT31;68092;51.982;5.680;2023-03-14T06:31:21;12.6;70.0
78767;SHT31;68092;51.982;5.680;2023-03-14T06:33:50;12.6;70.2
78767;SHT31;68092;51.982;5.680;2023-03-14T06:36:21;12.6;70.2
78767;SHT31;68092;51.982;5.680;2023-03-14T06:38:52;12.6;70.5
78767;SHT31;68092;51.982;5.680;2023-03-14T06:41:21;12.6;70.4
78767;SHT31;68092;51.982;5.680;2023-03-14T06:43:53;12.6;70.6
78767;SHT31;68092;51.982;5.680;2023-03-14T06:46:23;12.6;70.4
78767;SHT31;68092;51.982;5.680;2023-03-14T06:48:52;12.6;70.6
78767;SHT31;68092;51.982;5.680;2023-03-14T06:51:23;12.6;70.7
78767;SHT31;68092;51.982;5.680;2023-03-14T06:53:54;12.6;70.5
78767;SHT31;68092;51.982;5.680;2023-03-14T06:56:23;12.6;70.5
78767;SHT31;68092;51.982;5.680;2023-03-14T06:58:53;12.6;70.9
78767;SHT31;68092;51.982;5.680;2023-03-14T07:01:25;12.7;70.8
78767;SHT31;68092;51.982;5.680;2023-03-14T07:03:56;12.7;70.7
78767;SHT31;68092;51.982;5.680;2023-03-14T07:06:28;12.7;70.6
78767;SHT31;68092;51.982;5.680;2023-03-14T07:08:58;12.7;70.7
78767;SHT31;68092;51.982;5.680;2023-03-14T07:11:27;12.7;71.3
78767;SHT31;68092;51.982;5.680;2023-03-14T07:13:57;12.7;70.2
78767;SHT31;68092;51.982;5.680;2023-03-14T07:16:26;12.7;68.7
78767;SHT31;68092;51.982;5.680;2023-03-14T07:19:02;12.7;66.8
78767;SHT31;68092;51.982;5.680;2023-03-14T07:21:31;12.7;65.5
78767;SHT31;68092;51.982;5.680;2023-03-14T07:24:02;12.7;64.4
78767;SHT31;68092;51.982;5.680;2023-03-14T07:26:32;12.7;64.6
78767;SHT31;68092;51.982;5.680;2023-03-14T07:29:01;12.7;64.1
78767;SHT31;68092;51.982;5.680;2023-03-14T07:31:32;12.7;64.7
78767;SHT31;68092;51.982;5.680;2023-03-14T07:34:01;12.7;64.4
78767;SHT31;68092;51.982;5.680;2023-03-14T07:36:31;12.7;64.0
78767;SHT31;68092;51.982;5.680;2023-03-14T07:39:01;12.7;64.0
78767;SHT31;68092;51.982;5.680;2023-03-14T07:41:32;12.7;64.0
78767;SHT31;68092;51.982;5.680;2023-03-14T07:44:02;12.7;63.2
78767;SHT31;68092;51.982;5.680;2023-03-14T07:46:32;12.7;63.9
78767;SHT31;68092;51.982;5.680;2023-03-14T07:49:02;12.7;64.3
78767;SHT31;68092;51.982;5.680;2023-03-14T07:51:31;12.7;64.7
78767;SHT31;68092;51.982;5.680;2023-03-14T07:54:01;12.7;64.3
78767;SHT31;68092;51.982;5.680;2023-03-14T07:56:32;12.7;64.9
78767;SHT31;68092;51.982;5.680;2023-03-14T07:59:01;12.7;65.2
78767;SHT31;68092;51.982;5.680;2023-03-14T08:01:31;12.7;65.2
78767;SHT31;68092;51.982;5.680;2023-03-14T08:04:02;12.7;64.7
78767;SHT31;68092;51.982;5.680;2023-03-14T08:06:32;12.6;63.9
78767;SHT31;68092;51.982;5.680;2023-03-14T08:09:02;12.6;64.5
78767;SHT31;68092;51.982;5.680;2023-03-14T08:11:32;12.6;64.2
78767;SHT31;68092;51.982;5.680;2023-03-14T08:14:02;12.6;63.7
78767;SHT31;68092;51.982;5.680;2023-03-14T08:16:31;12.6;63.9
78767;SHT31;68092;51.982;5.680;2023-03-14T08:19:01;12.6;63.9
78767;SHT31;68092;51.982;5.680;2023-03-14T08:21:31;12.5;64.2
78767;SHT31;68092;51.982;5.680;2023-03-14T08:24:00;12.5;63.7
78767;SHT31;68092;51.982;5.680;2023-03-14T08:26:30;12.4;62.7
78767;SHT31;68092;51.982;5.680;2023-03-14T08:28:59;12.4;63.5
78767;SHT31;68092;51.982;5.680;2023-03-14T08:31:31;12.4;62.5
78767;SHT31;68092;51.982;5.680;2023-03-14T08:34:03;12.3;62.3
78767;SHT31;68092;51.982;5.680;2023-03-14T08:36:34;12.2;61.7
78767;SHT31;68092;51.982;5.680;2023-03-14T08:39:03;12.2;60.2
78767;SHT31;68092;51.982;5.680;2023-03-14T08:41:35;12.1;60.2
78767;SHT31;68092;51.982;5.680;2023-03-14T08:44:09;11.9;58.7
78767;SHT31;68092;51.982;5.680;2023-03-14T08:46:39;11.8;60.1
78767;SHT31;68092;51.982;5.680;2023-03-14T08:49:12;11.6;59.6
78767;SHT31;68092;51.982;5.680;2023-03-14T08:51:42;11.5;60.8
78767;SHT31;68092;51.982;5.680;2023-03-14T08:54:15;11.4;61.8
78767;SHT31;68092;51.982;5.680;2023-03-14T08:56:46;11.4;61.3
78767;SHT31;68092;51.982;5.680;2023-03-14T08:59:15;11.3;62.0
78767;SHT31;68092;51.982;5.680;2023-03-14T09:01:45;11.3;62.6
78767;SHT31;68092;51.982;5.680;2023-03-14T09:04:15;11.2;62.4
78767;SHT31;68092;51.982;5.680;2023-03-14T09:06:44;11.2;62.6
78767;SHT31;68092;51.982;5.680;2023-03-14T09:09:14;11.1;61.7
78767;SHT31;68092;51.982;5.680;2023-03-14T09:11:44;11.1;61.7
78767;SHT31;68092;51.982;5.680;2023-03-14T09:14:13;11.0;62.6
78767;SHT31;68092;51.982;5.680;2023-03-14T09:16:43;11.0;63.6
78767;SHT31;68092;51.982;5.680;2023-03-14T09:19:14;10.9;62.7
78767;SHT31;68092;51.982;5.680;2023-03-14T09:21:44;10.9;61.7
78767;SHT31;68092;51.982;5.680;2023-03-14T09:24:16;10.9;63.3
78767;SHT31;68092;51.982;5.680;2023-03-14T09:26:45;10.9;62.7
78767;SHT31;68092;51.982;5.680;2023-03-14T09:29:15;10.9;61.8
78767;SHT31;68092;51.982;5.680;2023-03-14T09:31:46;10.9;61.1
78767;SHT31;68092;51.982;5.680;2023-03-14T09:34:15;11.0;61.6
78767;SHT31;68092;51.982;5.680;2023-03-14T09:36:46;11.0;59.5
78767;SHT31;68092;51.982;5.680;2023-03-14T09:39:16;11.0;59.8
78767;SHT31;68092;51.982;5.680;2023-03-14T09:41:50;11.0;59.7
78767;SHT31;68092;51.982;5.680;2023-03-14T09:44:25;11.0;60.9
78767;SHT31;68092;51.982;5.680;2023-03-14T09:47:02;11.0;59.7
78767;SHT31;68092;51.982;5.680;2023-03-14T09:49:36;11.0;59.3
78767;SHT31;68092;51.982;5.680;2023-03-14T09:52:18;11.0;59.2
78767;SHT31;68092;51.982;5.680;2023-03-14T09:54:53;11.0;57.9
78767;SHT31;68092;51.982;5.680;2023-03-14T09:57:25;11.0;58.6
78767;SHT31;68092;51.982;5.680;2023-03-14T10:00:00;11.1;58.0
78767;SHT31;68092;51.982;5.680;2023-03-14T10:02:42;11.1;57.5
78767;SHT31;68092;51.982;5.680;2023-03-14T10:05:17;11.1;57.1
78767;SHT31;68092;51.982;5.680;2023-03-14T10:07:47;11.1;55.9
78767;SHT31;68092;51.982;5.680;2023-03-14T10:10:20;11.1;56.2
78767;SHT31;68092;51.982;5.680;2023-03-14T10:12:55;11.2;58.0
78767;SHT31;68092;51.982;5.680;2023-03-14T10:15:30;11.2;59.5
78767;SHT31;68092;51.982;5.680;2023-03-14T10:18:03;11.3;57.1
78767;SHT31;68092;51.982;5.680;2023-03-14T10:20:40;11.3;56.4
78767;SHT31;68092;51.982;5.680;2023-03-14T10:23:23;11.4;55.8
78767;SHT31;68092;51.982;5.680;2023-03-14T10:26:07;11.4;55.4
78767;SHT31;68092;51.982;5.680;2023-03-14T10:28:43;11.4;56.9
78767;SHT31;68092;51.982;5.680;2023-03-14T10:31:16;11.5;56.1
78767;SHT31;68092;51.982;5.680;2023-03-14T10:33:59;11.5;54.4
78767;SHT31;68092;51.982;5.680;2023-03-14T10:36:31;11.6;53.9
78767;SHT31;68092;51.982;5.680;2023-03-14T10:39:26;11.6;54.2
78767;SHT31;68092;51.982;5.680;2023-03-14T10:42:05;11.6;54.9
78767;SHT31;68092;51.982;5.680;2023-03-14T10:44:37;11.7;53.7
78767;SHT31;68092;51.982;5.680;2023-03-14T10:47:18;11.7;54.2
78767;SHT31;68092;51.982;5.680;2023-03-14T10:49:49;11.7;55.1
78767;SHT31;68092;51.982;5.680;2023-03-14T10:52:22;11.7;56.0
78767;SHT31;68092;51.982;5.680;2023-03-14T10:54:58;11.8;56.0
78767;SHT31;68092;51.982;5.680;2023-03-14T10:57:28;11.7;55.5
78767;SHT31;68092;51.982;5.680;2023-03-14T10:59:58;11.7;57.0
78767;SHT31;68092;51.982;5.680;2023-03-14T11:02:34;11.7;55.7
78767;SHT31;68092;51.982;5.680;2023-03-14T11:05:21;11.7;55.7
78767;SHT31;68092;51.982;5.680;2023-03-14T11:07:59;11.7;55.0
78767;SHT31;68092;51.982;5.680;2023-03-14T11:10:33;11.7;53.3
78767;SHT31;68092;51.982;5.680;2023-03-14T11:13:16;11.7;55.6
78767;SHT31;68092;51.982;5.680;2023-03-14T11:16:01;11.8;54.4
78767;SHT31;68092;51.982;5.680;2023-03-14T11:18:48;11.8;54.4
78767;SHT31;68092;51.982;5.680;2023-03-14T11:21:25;11.8;53.4
78767;SHT31;68092;51.982;5.680;2023-03-14T11:24:03;11.8;52.8
78767;SHT31;68092;51.982;5.680;2023-03-14T11:26:42;11.8;53.3
78767;SHT31;68092;51.982;5.680;2023-03-14T11:29:21;11.8;51.6
78767;SHT31;68092;51.982;5.680;2023-03-14T11:31:57;11.8;52.4
78767;SHT31;68092;51.982;5.680;2023-03-14T11:34:36;11.9;49.8
78767;SHT31;68092;51.982;5.680;2023-03-14T11:37:16;11.9;49.6
78767;SHT31;68092;51.982;5.680;2023-03-14T11:39:56;11.9;46.7
78767;SHT31;68092;51.982;5.680;2023-03-14T11:42:29;11.9;48.2
78767;SHT31;68092;51.982;5.680;2023-03-14T11:45:01;11.9;48.2
78767;SHT31;68092;51.982;5.680;2023-03-14T11:47:37;11.9;49.0
78767;SHT31;68092;51.982;5.680;2023-03-14T11:50:17;12.0;52.6
78767;SHT31;68092;51.982;5.680;2023-03-14T11:52:51;12.1;51.1
78767;SHT31;68092;51.982;5.680;2023-03-14T11:55:27;12.3;50.0
78767;SHT31;68092;51.982;5.680;2023-03-14T11:58:01;12.5;48.4
78767;SHT31;68092;51.982;5.680;2023-03-14T12:00:38;12.7;46.8
78767;SHT31;68092;51.982;5.680;2023-03-14T12:03:17;12.9;43.7
78767;SHT31;68092;51.982;5.680;2023-03-14T12:05:56;13.0;41.8
78767;SHT31;68092;51.982;5.680;2023-03-14T12:09:01;13.0;43.6
78767;SHT31;68092;51.982;5.680;2023-03-14T12:11:38;13.0;44.0
78767;SHT31;68092;51.982;5.680;2023-03-14T12:14:24;13.1;45.0
78767;SHT31;68092;51.982;5.680;2023-03-14T12:17:06;13.2;44.9
78767;SHT31;68092;51.982;5.680;2023-03-14T12:19:38;13.3;43.2
78767;SHT31;68092;51.982;5.680;2023-03-14T12:22:26;13.5;43.6
78767;SHT31;68092;51.982;5.680;2023-03-14T12:25:13;13.6;42.1
78767;SHT31;68092;51.982;5.680;2023-03-14T12:28:02;13.8;46.1
78767;SHT31;68092;51.982;5.680;2023-03-14T12:30:30;14.0;41.6
78767;SHT31;68092;51.982;5.680;2023-03-14T12:38:03;14.5;39.0
78767;SHT31;68092;51.982;5.680;2023-03-14T12:40:45;14.6;40.3
78767;SHT31;68092;51.982;5.680;2023-03-14T12:43:26;14.7;38.6
78767;SHT31;68092;51.982;5.680;2023-03-14T12:46:22;14.9;39.2
78767;SHT31;68092;51.982;5.680;2023-03-14T12:49:07;15.2;38.7
78767;SHT31;68092;51.982;5.680;2023-03-14T12:51:39;15.5;35.5
78767;SHT31;68092;51.982;5.680;2023-03-14T12:54:57;15.6;35.0
78767;SHT31;68092;51.982;5.680;2023-03-14T12:57:37;15.7;34.1
78767;SHT31;68092;51.982;5.680;2023-03-14T13:00:20;15.8;34.0
78767;SHT31;68092;51.982;5.680;2023-03-14T13:02:52;15.9;34.5
78767;SHT31;68092;51.982;5.680;2023-03-14T13:05:23;16.0;32.7
78767;SHT31;68092;51.982;5.680;2023-03-14T13:08:09;16.2;33.8
78767;SHT31;68092;51.982;5.680;2023-03-14T13:10:48;16.3;33.8
78767;SHT31;68092;51.982;5.680;2023-03-14T13:13:21;16.4;33.1
78767;SHT31;68092;51.982;5.680;2023-03-14T13:15:59;16.5;31.3
78767;SHT31;68092;51.982;5.680;2023-03-14T13:18:35;16.6;29.5
78767;SHT31;68092;51.982;5.680;2023-03-14T13:21:13;16.6;30.9
78767;SHT31;68092;51.982;5.680;2023-03-14T13:23:58;16.6;31.8
78767;SHT31;68092;51.982;5.680;2023-03-14T13:26:35;16.7;30.2
78767;SHT31;68092;51.982;5.680;2023-03-14T13:29:16;16.7;31.7
78767;SHT31;68092;51.982;5.680;2023-03-14T13:31:50;16.8;31.7
78767;SHT31;68092;51.982;5.680;2023-03-14T13:34:20;16.9;34.0
78767;SHT31;68092;51.982;5.680;2023-03-14T13:36:51;17.0;31.2
78767;SHT31;68092;51.982;5.680;2023-03-14T13:39:23;17.1;32.6
78767;SHT31;68092;51.982;5.680;2023-03-14T13:41:55;17.2;28.6
78767;SHT31;68092;51.982;5.680;2023-03-14T13:44:30;17.3;30.9
78767;SHT31;68092;51.982;5.680;2023-03-14T13:47:04;17.4;27.8
78767;SHT31;68092;51.982;5.680;2023-03-14T13:49:37;17.4;28.4
78767;SHT31;68092;51.982;5.680;2023-03-14T13:52:27;17.4;28.6
78767;SHT31;68092;51.982;5.680;2023-03-14T13:55:00;17.4;29.1
78767;SHT31;68092;51.982;5.680;2023-03-14T13:57:47;17.3;27.5
78767;SHT31;68092;51.982;5.680;2023-03-14T14:00:24;17.3;27.5
78767;SHT31;68092;51.982;5.680;2023-03-14T14:02:57;17.2;27.0
78767;SHT31;68092;51.982;5.680;2023-03-14T14:05:29;17.1;29.4
78767;SHT31;68092;51.982;5.680;2023-03-14T14:08:03;17.1;29.8
78767;SHT31;68092;51.982;5.680;2023-03-14T14:10:37;17.1;30.4
78767;SHT31;68092;51.982;5.680;2023-03-14T14:13:12;17.1;29.9
78767;SHT31;68092;51.982;5.680;2023-03-14T14:15:49;17.2;30.0
78767;SHT31;68092;51.982;5.680;2023-03-14T14:18:25;17.3;29.2
78767;SHT31;68092;51.982;5.680;2023-03-14T14:20:57;17.4;28.0
78767;SHT31;68092;51.982;5.680;2023-03-14T14:23:29;17.4;26.8
78767;SHT31;68092;51.982;5.680;2023-03-14T14:26:00;17.3;29.2
78767;SHT31;68092;51.982;5.680;2023-03-14T14:28:32;17.2;27.6
78767;SHT31;68092;51.982;5.680;2023-03-14T14:31:16;17.1;28.5
78767;SHT31;68092;51.982;5.680;2023-03-14T14:33:42;17.0;29.1
78767;SHT31;68092;51.982;5.680;2023-03-14T14:36:22;17.0;29.2
78767;SHT31;68092;51.982;5.680;2023-03-14T14:38:54;16.9;29.8
78767;SHT31;68092;51.982;5.680;2023-03-14T14:41:30;16.9;29.7
78767;SHT31;68092;51.982;5.680;2023-03-14T14:44:00;16.9;29.1
78767;SHT31;68092;51.982;5.680;2023-03-14T14:46:34;16.9;30.6
78767;SHT31;68092;51.982;5.680;2023-03-14T14:49:10;16.8;31.0
78767;SHT31;68092;51.982;5.680;2023-03-14T14:51:43;16.8;30.3
78767;SHT31;68092;51.982;5.680;2023-03-14T14:54:16;16.7;31.1
78767;SHT31;68092;51.982;5.680;2023-03-14T14:56:51;16.6;29.8
78767;SHT31;68092;51.982;5.680;2023-03-14T14:59:23;16.5;30.0
78767;SHT31;68092;51.982;5.680;2023-03-14T15:02:00;16.4;30.6
78767;SHT31;68092;51.982;5.680;2023-03-14T15:04:32;16.3;28.4
78767;SHT31;68092;51.982;5.680;2023-03-14T15:07:04;16.2;29.5
78767;SHT31;68092;51.982;5.680;2023-03-14T15:09:34;16.1;29.8
78767;SHT31;68092;51.982;5.680;2023-03-14T15:12:04;16.0;30.5
78767;SHT31;68092;51.982;5.680;2023-03-14T15:14:33;15.8;29.9
78767;SHT31;68092;51.982;5.680;2023-03-14T15:17:03;15.7;29.1
78767;SHT31;68092;51.982;5.680;2023-03-14T15:19:33;15.6;29.8
78767;SHT31;68092;51.982;5.680;2023-03-14T15:22:02;15.5;30.3
78767;SHT31;68092;51.982;5.680;2023-03-14T15:24:33;15.4;30.3
78767;SHT31;68092;51.982;5.680;2023-03-14T15:27:04;15.3;29.6
78767;SHT31;68092;51.982;5.680;2023-03-14T15:29:34;15.2;30.4
78767;SHT31;68092;51.982;5.680;2023-03-14T15:32:05;15.0;30.0
78767;SHT31;68092;51.982;5.680;2023-03-14T15:34:35;14.9;29.9
78767;SHT31;68092;51.982;5.680;2023-03-14T15:37:05;14.7;31.7
78767;SHT31;68092;51.982;5.680;2023-03-14T15:39:35;14.6;31.5
78767;SHT31;68092;51.982;5.680;2023-03-14T15:42:05;14.5;32.2
78767;SHT31;68092;51.982;5.680;2023-03-14T15:44:35;14.4;31.5
78767;SHT31;68092;51.982;5.680;2023-03-14T15:47:10;14.3;31.0
78767;SHT31;68092;51.982;5.680;2023-03-14T15:49:40;14.3;31.2
78767;SHT31;68092;51.982;5.680;2023-03-14T15:52:10;14.2;32.0
78767;SHT31;68092;51.982;5.680;2023-03-14T15:54:39;14.1;32.7
78767;SHT31;68092;51.982;5.680;2023-03-14T15:57:11;14.1;31.3
78767;SHT31;68092;51.982;5.680;2023-03-14T15:59:41;14.0;33.4
78767;SHT31;68092;51.982;5.680;2023-03-14T16:02:11;13.9;32.3
78767;SHT31;68092;51.982;5.680;2023-03-14T16:04:40;13.8;32.2
78767;SHT31;68092;51.982;5.680;2023-03-14T16:07:12;13.7;32.4
78767;SHT31;68092;51.982;5.680;2023-03-14T16:09:41;13.7;31.6
78767;SHT31;68092;51.982;5.680;2023-03-14T16:12:13;13.6;32.8
78767;SHT31;68092;51.982;5.680;2023-03-14T16:14:42;13.5;32.4
78767;SHT31;68092;51.982;5.680;2023-03-14T16:17:13;13.5;33.6
78767;SHT31;68092;51.982;5.680;2023-03-14T16:19:43;13.4;33.5
78767;SHT31;68092;51.982;5.680;2023-03-14T16:22:14;13.4;32.4
78767;SHT31;68092;51.982;5.680;2023-03-14T16:24:44;13.3;33.0
78767;SHT31;68092;51.982;5.680;2023-03-14T16:27:14;13.3;33.7
78767;SHT31;68092;51.982;5.680;2023-03-14T16:29:44;13.2;33.0
78767;SHT31;68092;51.982;5.680;2023-03-14T16:32:19;13.1;33.4
78767;SHT31;68092;51.982;5.680;2023-03-14T16:34:49;13.1;34.2
78767;SHT31;68092;51.982;5.680;2023-03-14T16:37:18;13.0;34.6
78767;SHT31;68092;51.982;5.680;2023-03-14T16:39:48;13.0;34.9
78767;SHT31;68092;51.982;5.680;2023-03-14T16:42:22;12.9;33.4
78767;SHT31;68092;51.982;5.680;2023-03-14T16:44:52;12.9;33.2